sensor_id;sensor_type;location;lat;lon;timestamp;temperature;humidity
39401;DHT22;54391;50.000;7.360;2023-03-01T00:02:06;-1.90;12.20
39401;DHT22;54391;50.000;7.360;2023-03-01T00:04:34;-1.90;12.60
39401;DHT22;54391;50.000;7.360;2023-03-01T00:07:01;-1.80;12.60
39401;DHT22;54391;50.000;7.360;2023-03-01T00:09:29;-1.80;12.50
39401;DHT22;54391;50.000;7.360;2023-03-01T00:11:57;-1.90;12.80
39401;DHT22;54391;50.000;7.360;2023-03-01T00:14:24;-1.90;12.90
39401;DHT22;54391;50.000;7.360;2023-03-01T00:16:51;-1.90;13.00
39401;DHT22;54391;50.000;7.360;2023-03-01T00:19:18;-2.00;13.00
39401;DHT22;54391;50.000;7.360;2023-03-01T00:21:47;-2.00;12.60
39401;DHT22;54391;50.000;7.360;2023-03-01T00:24:14;-2.10;13.20
39401;DHT22;54391;50.000;7.360;2023-03-01T00:26:41;-2.20;14.10
39401;DHT22;54391;50.000;7.360;2023-03-01T00:29:09;-2.20;14.60
39401;DHT22;54391;50.000;7.360;2023-03-01T00:31:36;-2.40;14.70
39401;DHT22;54391;50.000;7.360;2023-03-01T00:34:04;-2.40;15.20
39401;DHT22;54391;50.000;7.360;2023-03-01T00:36:32;-2.40;15.90
39401;DHT22;54391;50.000;7.360;2023-03-01T00:39:00;-2.30;15.50
39401;DHT22;54391;50.000;7.360;2023-03-01T00:41:28;-2.30;15.90
39401;DHT22;54391;50.000;7.360;2023-03-01T00:43:55;-2.40;16.00
39401;DHT22;54391;50.000;7.360;2023-03-01T00:46:24;-2.40;16.00
39401;DHT22;54391;50.000;7.360;2023-03-01T00:48:52;-2.40;16.30
39401;DHT22;54391;50.000;7.360;2023-03-01T00:51:19;-2.40;16.30
39401;DHT22;54391;50.000;7.360;2023-03-01T00:53:47;-2.40;16.10
39401;DHT22;54391;50.000;7.360;2023-03-01T00:56:16;-2.40;16.60
39401;DHT22;54391;50.000;7.360;2023-03-01T00:58:43;-2.30;16.30
39401;DHT22;54391;50.000;7.360;2023-03-01T01:01:11;-2.40;16.40
39401;DHT22;54391;50.000;7.360;2023-03-01T01:03:46;-2.40;15.90
39401;DHT22;54391;50.000;7.360;2023-03-01T01:06:14;-2.30;16.20
39401;DHT22;54391;50.000;7.360;2023-03-01T01:08:41;-2.30;16.10
39401;DHT22;54391;50.000;7.360;2023-03-01T01:11:08;-2.40;15.90
39401;DHT22;54391;50.000;7.360;2023-03-01T01:13:36;-2.30;15.70
39401;DHT22;54391;50.000;7.360;2023-03-01T01:16:03;-2.40;16.00
39401;DHT22;54391;50.000;7.360;2023-03-01T01:18:30;-2.40;16.00
39401;DHT22;54391;50.000;7.360;2023-03-01T01:21:02;-2.40;16.10
39401;DHT22;54391;50.000;7.360;2023-03-01T01:23:29;-2.50;15.90
39401;DHT22;54391;50.000;7.360;2023-03-01T01:25:56;-2.60;16.40
39401;DHT22;54391;50.000;7.360;2023-03-01T01:28:23;-2.50;16.60
39401;DHT22;54391;50.000;7.360;2023-03-01T01:30:50;-2.50;16.50
39401;DHT22;54391;50.000;7.360;2023-03-01T01:33:17;-2.50;16.20
39401;DHT22;54391;50.000;7.360;2023-03-01T01:35:44;-2.60;16.90
39401;DHT22;54391;50.000;7.360;2023-03-01T01:38:13;-2.50;17.00
39401;DHT22;54391;50.000;7.360;2023-03-01T01:40:43;-2.50;16.90
39401;DHT22;54391;50.000;7.360;2023-03-01T01:43:13;-2.60;16.50
39401;DHT22;54391;50.000;7.360;2023-03-01T01:45:43;-2.60;16.90
39401;DHT22;54391;50.000;7.360;2023-03-01T01:48:10;-2.60;17.30
39401;DHT22;54391;50.000;7.360;2023-03-01T01:50:39;-2.40;16.80
39401;DHT22;54391;50.000;7.360;2023-03-01T01:53:08;-2.30;15.70
39401;DHT22;54391;50.000;7.360;2023-03-01T01:55:39;-2.20;16.00
39401;DHT22;54391;50.000;7.360;2023-03-01T01:58:07;-2.20;15.60
39401;DHT22;54391;50.000;7.360;2023-03-01T02:00:35;-2.20;15.60
39401;DHT22;54391;50.000;7.360;2023-03-01T02:03:04;-2.10;15.40
39401;DHT22;54391;50.000;7.360;2023-03-01T02:05:35;-2.10;15.50
39401;DHT22;54391;50.000;7.360;2023-03-01T02:08:03;-2.10;15.50
39401;DHT22;54391;50.000;7.360;2023-03-01T02:10:31;-2.10;15.40
39401;DHT22;54391;50.000;7.360;2023-03-01T02:13:01;-2.10;15.10
39401;DHT22;54391;50.000;7.360;2023-03-01T02:15:32;-2.20;15.60
39401;DHT22;54391;50.000;7.360;2023-03-01T02:18:00;-5.10;14.70
39401;DHT22;54391;50.000;7.360;2023-03-01T02:20:29;-2.20;16.00
39401;DHT22;54391;50.000;7.360;2023-03-01T02:23:00;-2.30;16.30
39401;DHT22;54391;50.000;7.360;2023-03-01T02:25:33;-2.40;16.70
39401;DHT22;54391;50.000;7.360;2023-03-01T02:28:05;-2.40;17.00
39401;DHT22;54391;50.000;7.360;2023-03-01T02:30:35;-2.50;17.40
39401;DHT22;54391;50.000;7.360;2023-03-01T02:33:03;-2.60;17.20
39401;DHT22;54391;50.000;7.360;2023-03-01T02:35:30;-2.60;18.20
39401;DHT22;54391;50.000;7.360;2023-03-01T02:37:58;-2.50;18.10
39401;DHT22;54391;50.000;7.360;2023-03-01T02:40:28;-1.00;18.40
39401;DHT22;54391;50.000;7.360;2023-03-01T02:42:56;-2.50;17.80
39401;DHT22;54391;50.000;7.360;2023-03-01T02:45:25;-2.60;18.40
39401;DHT22;54391;50.000;7.360;2023-03-01T02:47:54;-2.50;18.30
39401;DHT22;54391;50.000;7.360;2023-03-01T02:50:32;-2.60;18.60
39401;DHT22;54391;50.000;7.360;2023-03-01T02:53:04;-2.70;18.50
39401;DHT22;54391;50.000;7.360;2023-03-01T02:55:34;-2.60;18.90
39401;DHT22;54391;50.000;7.360;2023-03-01T02:58:02;-2.70;18.90
39401;DHT22;54391;50.000;7.360;2023-03-01T03:00:33;-2.70;18.70
39401;DHT22;54391;50.000;7.360;2023-03-01T03:03:02;-2.60;18.50
39401;DHT22;54391;50.000;7.360;2023-03-01T03:05:31;-2.60;18.80
39401;DHT22;54391;50.000;7.360;2023-03-01T03:07:58;-2.60;19.00
39401;DHT22;54391;50.000;7.360;2023-03-01T03:10:26;-2.40;19.20
39401;DHT22;54391;50.000;7.360;2023-03-01T03:12:56;-2.70;19.00
39401;DHT22;54391;50.000;7.360;2023-03-01T03:15:23;-2.70;19.50
39401;DHT22;54391;50.000;7.360;2023-03-01T03:17:51;-2.50;19.20
39401;DHT22;54391;50.000;7.360;2023-03-01T03:20:20;-2.60;19.30
39401;DHT22;54391;50.000;7.360;2023-03-01T03:22:51;-2.50;18.60
39401;DHT22;54391;50.000;7.360;2023-03-01T03:25:19;-2.50;19.00
39401;DHT22;54391;50.000;7.360;2023-03-01T03:27:46;-2.50;19.10
39401;DHT22;54391;50.000;7.360;2023-03-01T03:30:14;-2.50;19.10
39401;DHT22;54391;50.000;7.360;2023-03-01T03:32:42;-2.50;18.40
39401;DHT22;54391;50.000;7.360;2023-03-01T03:35:18;-2.40;18.60
39401;DHT22;54391;50.000;7.360;2023-03-01T03:37:46;-2.40;18.50
39401;DHT22;54391;50.000;7.360;2023-03-01T03:40:29;-2.50;18.00
39401;DHT22;54391;50.000;7.360;2023-03-01T03:42:56;-2.50;17.60
39401;DHT22;54391;50.000;7.360;2023-03-01T03:45:23;-2.40;18.40
39401;DHT22;54391;50.000;7.360;2023-03-01T03:47:50;-2.50;18.40
39401;DHT22;54391;50.000;7.360;2023-03-01T03:50:18;-2.60;18.70
39401;DHT22;54391;50.000;7.360;2023-03-01T03:52:46;-2.60;18.50
39401;DHT22;54391;50.000;7.360;2023-03-01T03:55:13;-2.60;18.60
39401;DHT22;54391;50.000;7.360;2023-03-01T03:57:45;-2.50;18.70
39401;DHT22;54391;50.000;7.360;2023-03-01T04:00:15;-2.60;18.40
39401;DHT22;54391;50.000;7.360;2023-03-01T04:02:42;-2.40;18.30
39401;DHT22;54391;50.000;7.360;2023-03-01T04:05:10;-2.40;18.30
39401;DHT22;54391;50.000;7.360;2023-03-01T04:07:37;-2.50;18.10
39401;DHT22;54391;50.000;7.360;2023-03-01T04:10:07;-2.40;18.50
39401;DHT22;54391;50.000;7.360;2023-03-01T04:12:34;-2.30;17.50
39401;DHT22;54391;50.000;7.360;2023-03-01T04:15:02;-2.40;17.80
39401;DHT22;54391;50.000;7.360;2023-03-01T04:17:38;-2.40;18.30
39401;DHT22;54391;50.000;7.360;2023-03-01T04:20:05;-2.40;18.30
39401;DHT22;54391;50.000;7.360;2023-03-01T04:22:34;1.80;19.90
39401;DHT22;54391;50.000;7.360;2023-03-01T04:25:00;-2.60;19.10
39401;DHT22;54391;50.000;7.360;2023-03-01T04:27:33;-2.60;19.50
39401;DHT22;54391;50.000;7.360;2023-03-01T04:30:00;-2.70;19.70
39401;DHT22;54391;50.000;7.360;2023-03-01T04:32:27;-2.60;19.20
39401;DHT22;54391;50.000;7.360;2023-03-01T04:34:54;-2.70;19.50
39401;DHT22;54391;50.000;7.360;2023-03-01T04:37:24;-2.60;19.30
39401;DHT22;54391;50.000;7.360;2023-03-01T04:39:51;-2.60;18.90
39401;DHT22;54391;50.000;7.360;2023-03-01T04:42:19;-2.60;18.90
39401;DHT22;54391;50.000;7.360;2023-03-01T04:44:47;-2.60;19.40
39401;DHT22;54391;50.000;7.360;2023-03-01T04:47:16;-2.70;19.30
39401;DHT22;54391;50.000;7.360;2023-03-01T04:49:43;-2.70;19.90
39401;DHT22;54391;50.000;7.360;2023-03-01T04:52:10;-2.80;19.40
39401;DHT22;54391;50.000;7.360;2023-03-01T04:54:37;-2.80;20.10
39401;DHT22;54391;50.000;7.360;2023-03-01T04:57:04;-2.80;20.10
39401;DHT22;54391;50.000;7.360;2023-03-01T04:59:31;-3.00;20.90
39401;DHT22;54391;50.000;7.360;2023-03-01T05:02:00;-3.00;20.50
39401;DHT22;54391;50.000;7.360;2023-03-01T05:04:27;-3.10;20.80
39401;DHT22;54391;50.000;7.360;2023-03-01T05:06:54;-3.20;21.40
39401;DHT22;54391;50.000;7.360;2023-03-01T05:09:21;-3.10;21.90
39401;DHT22;54391;50.000;7.360;2023-03-01T05:11:48;-3.10;21.80
39401;DHT22;54391;50.000;7.360;2023-03-01T05:14:17;-3.10;22.30
39401;DHT22;54391;50.000;7.360;2023-03-01T05:16:44;-3.10;21.70
39401;DHT22;54391;50.000;7.360;2023-03-01T05:19:12;-3.20;21.30
39401;DHT22;54391;50.000;7.360;2023-03-01T05:21:41;-3.00;20.60
39401;DHT22;54391;50.000;7.360;2023-03-01T05:24:22;-3.00;21.20
39401;DHT22;54391;50.000;7.360;2023-03-01T05:26:49;-3.00;20.80
39401;DHT22;54391;50.000;7.360;2023-03-01T05:29:17;-2.90;20.80
39401;DHT22;54391;50.000;7.360;2023-03-01T05:31:50;-2.90;20.00
39401;DHT22;54391;50.000;7.360;2023-03-01T05:34:19;-2.90;20.50
39401;DHT22;54391;50.000;7.360;2023-03-01T05:36:48;-2.30;20.90
39401;DHT22;54391;50.000;7.360;2023-03-01T05:39:19;-3.10;21.70
39401;DHT22;54391;50.000;7.360;2023-03-01T05:41:46;-3.00;21.00
39401;DHT22;54391;50.000;7.360;2023-03-01T05:44:13;-3.10;21.40
39401;DHT22;54391;50.000;7.360;2023-03-01T05:46:41;-3.00;20.80
39401;DHT22;54391;50.000;7.360;2023-03-01T05:49:08;-3.00;20.90
39401;DHT22;54391;50.000;7.360;2023-03-01T05:51:36;-2.90;20.00
39401;DHT22;54391;50.000;7.360;2023-03-01T05:54:03;-3.00;20.30
39401;DHT22;54391;50.000;7.360;2023-03-01T05:56:32;-3.10;20.70
39401;DHT22;54391;50.000;7.360;2023-03-01T05:58:59;-3.20;20.90
39401;DHT22;54391;50.000;7.360;2023-03-01T06:01:27;-3.30;20.70
39401;DHT22;54391;50.000;7.360;2023-03-01T06:03:54;-3.30;21.20
39401;DHT22;54391;50.000;7.360;2023-03-01T06:06:22;-3.30;22.10
39401;DHT22;54391;50.000;7.360;2023-03-01T06:08:50;-3.30;22.50
39401;DHT22;54391;50.000;7.360;2023-03-01T06:11:17;-3.30;22.50
39401;DHT22;54391;50.000;7.360;2023-03-01T06:13:45;-3.30;21.90
39401;DHT22;54391;50.000;7.360;2023-03-01T06:16:12;-3.20;21.70
39401;DHT22;54391;50.000;7.360;2023-03-01T06:18:39;-3.30;22.30
39401;DHT22;54391;50.000;7.360;2023-03-01T06:21:06;-3.40;22.60
39401;DHT22;54391;50.000;7.360;2023-03-01T06:23:34;-3.30;22.20
39401;DHT22;54391;50.000;7.360;2023-03-01T06:26:06;-3.20;21.90
39401;DHT22;54391;50.000;7.360;2023-03-01T06:28:33;-3.10;21.90
39401;DHT22;54391;50.000;7.360;2023-03-01T06:31:00;-3.00;21.20
39401;DHT22;54391;50.000;7.360;2023-03-01T06:33:28;-3.00;20.00
39401;DHT22;54391;50.000;7.360;2023-03-01T06:35:55;-2.90;20.40
39401;DHT22;54391;50.000;7.360;2023-03-01T06:38:22;-3.00;20.00
39401;DHT22;54391;50.000;7.360;2023-03-01T06:40:52;-3.10;21.20
39401;DHT22;54391;50.000;7.360;2023-03-01T06:43:22;-3.00;20.40
39401;DHT22;54391;50.000;7.360;2023-03-01T06:45:49;-2.90;20.50
39401;DHT22;54391;50.000;7.360;2023-03-01T06:48:16;-2.90;19.70
39401;DHT22;54391;50.000;7.360;2023-03-01T06:50:43;-2.80;20.00
39401;DHT22;54391;50.000;7.360;2023-03-01T06:53:10;-2.70;19.00
39401;DHT22;54391;50.000;7.360;2023-03-01T06:55:37;-2.70;19.40
39401;DHT22;54391;50.000;7.360;2023-03-01T06:58:04;-2.80;19.70
39401;DHT22;54391;50.000;7.360;2023-03-01T07:00:32;-2.70;19.80
39401;DHT22;54391;50.000;7.360;2023-03-01T07:02:59;-2.80;19.50
39401;DHT22;54391;50.000;7.360;2023-03-01T07:05:28;-2.80;19.90
39401;DHT22;54391;50.000;7.360;2023-03-01T07:07:55;-2.80;20.20
39401;DHT22;54391;50.000;7.360;2023-03-01T07:10:22;-2.70;20.10
39401;DHT22;54391;50.000;7.360;2023-03-01T07:12:49;-2.70;19.30
39401;DHT22;54391;50.000;7.360;2023-03-01T07:15:16;-2.60;19.70
39401;DHT22;54391;50.000;7.360;2023-03-01T07:17:44;-2.60;19.40
39401;DHT22;54391;50.000;7.360;2023-03-01T07:20:13;-2.60;20.90
39401;DHT22;54391;50.000;7.360;2023-03-01T07:22:40;-2.50;18.60
39401;DHT22;54391;50.000;7.360;2023-03-01T07:25:08;-2.50;19.00
39401;DHT22;54391;50.000;7.360;2023-03-01T07:27:35;-2.50;18.90
39401;DHT22;54391;50.000;7.360;2023-03-01T07:30:02;-2.30;18.30
39401;DHT22;54391;50.000;7.360;2023-03-01T07:32:30;-1.90;17.30
39401;DHT22;54391;50.000;7.360;2023-03-01T07:34:58;-1.90;17.10
39401;DHT22;54391;50.000;7.360;2023-03-01T07:37:25;-1.60;16.60
39401;DHT22;54391;50.000;7.360;2023-03-01T07:39:52;-1.50;15.20
39401;DHT22;54391;50.000;7.360;2023-03-01T07:42:19;-1.50;14.50
39401;DHT22;54391;50.000;7.360;2023-03-01T07:44:46;-1.40;15.10
39401;DHT22;54391;50.000;7.360;2023-03-01T07:47:13;-0.90;14.20
39401;DHT22;54391;50.000;7.360;2023-03-01T07:49:40;-0.60;12.70
39401;DHT22;54391;50.000;7.360;2023-03-01T07:52:10;-0.50;11.00
39401;DHT22;54391;50.000;7.360;2023-03-01T07:54:37;-0.50;11.40
39401;DHT22;54391;50.000;7.360;2023-03-01T07:57:04;-0.60;11.00
39401;DHT22;54391;50.000;7.360;2023-03-01T07:59:31;-0.50;11.00
39401;DHT22;54391;50.000;7.360;2023-03-01T08:01:59;-0.50;10.60
39401;DHT22;54391;50.000;7.360;2023-03-01T08:04:27;-0.60;10.60
39401;DHT22;54391;50.000;7.360;2023-03-01T08:06:54;-0.80;11.60
39401;DHT22;54391;50.000;7.360;2023-03-01T08:09:23;-0.60;11.60
39401;DHT22;54391;50.000;7.360;2023-03-01T08:11:50;-0.50;11.00
39401;DHT22;54391;50.000;7.360;2023-03-01T08:14:17;-0.40;11.30
39401;DHT22;54391;50.000;7.360;2023-03-01T08:16:44;-0.10;10.40
39401;DHT22;54391;50.000;7.360;2023-03-01T08:19:11;-0.10;10.40
39401;DHT22;54391;50.000;7.360;2023-03-01T08:21:38;0.20;8.80
39401;DHT22;54391;50.000;7.360;2023-03-01T08:24:05;0.20;9.10
39401;DHT22;54391;50.000;7.360;2023-03-01T08:26:34;0.50;8.70
39401;DHT22;54391;50.000;7.360;2023-03-01T08:29:01;0.20;7.90
39401;DHT22;54391;50.000;7.360;2023-03-01T08:31:29;1.60;5.50
39401;DHT22;54391;50.000;7.360;2023-03-01T08:33:57;1.50;5.80
39401;DHT22;54391;50.000;7.360;2023-03-01T08:36:25;2.00;4.20
39401;DHT22;54391;50.000;7.360;2023-03-01T08:38:52;2.60;2.20
39401;DHT22;54391;50.000;7.360;2023-03-01T08:41:19;2.70;1.70
39401;DHT22;54391;50.000;7.360;2023-03-01T08:43:48;3.10;1.00
39401;DHT22;54391;50.000;7.360;2023-03-01T08:46:15;3.70;1.00
39401;DHT22;54391;50.000;7.360;2023-03-01T08:48:42;3.70;1.00
39401;DHT22;54391;50.000;7.360;2023-03-01T08:51:10;4.60;1.00
39401;DHT22;54391;50.000;7.360;2023-03-01T08:53:38;4.70;1.00
39401;DHT22;54391;50.000;7.360;2023-03-01T08:56:05;4.90;1.00
39401;DHT22;54391;50.000;7.360;2023-03-01T08:58:32;5.20;1.00
39401;DHT22;54391;50.000;7.360;2023-03-01T09:01:01;5.60;1.00
39401;DHT22;54391;50.000;7.360;2023-03-01T09:03:28;5.80;1.00
39401;DHT22;54391;50.000;7.360;2023-03-01T09:05:59;6.30;1.00
39401;DHT22;54391;50.000;7.360;2023-03-01T09:08:27;6.50;1.00
39401;DHT22;54391;50.000;7.360;2023-03-01T09:10:54;7.10;1.00
39401;DHT22;54391;50.000;7.360;2023-03-01T09:13:21;6.90;1.00
39401;DHT22;54391;50.000;7.360;2023-03-01T09:15:50;7.10;1.00
39401;DHT22;54391;50.000;7.360;2023-03-01T09:18:18;7.20;1.00
39401;DHT22;54391;50.000;7.360;2023-03-01T09:20:45;7.50;1.00
39401;DHT22;54391;50.000;7.360;2023-03-01T09:23:12;7.80;1.00
39401;DHT22;54391;50.000;7.360;2023-03-01T09:25:39;7.30;1.00
39401;DHT22;54391;50.000;7.360;2023-03-01T09:28:06;8.00;1.00
39401;DHT22;54391;50.000;7.360;2023-03-01T09:30:33;7.70;1.00
39401;DHT22;54391;50.000;7.360;2023-03-01T09:33:00;7.80;1.00
39401;DHT22;54391;50.000;7.360;2023-03-01T09:35:28;8.10;1.00
39401;DHT22;54391;50.000;7.360;2023-03-01T09:37:55;7.60;1.00
39401;DHT22;54391;50.000;7.360;2023-03-01T09:40:23;7.30;1.00
39401;DHT22;54391;50.000;7.360;2023-03-01T09:42:52;6.90;1.00
39401;DHT22;54391;50.000;7.360;2023-03-01T09:45:25;7.50;1.00
39401;DHT22;54391;50.000;7.360;2023-03-01T09:47:52;7.80;1.00
39401;DHT22;54391;50.000;7.360;2023-03-01T09:50:20;8.40;1.00
39401;DHT22;54391;50.000;7.360;2023-03-01T09:52:50;8.40;1.00
39401;DHT22;54391;50.000;7.360;2023-03-01T09:55:20;8.10;1.00
39401;DHT22;54391;50.000;7.360;2023-03-01T09:57:53;8.20;1.00
39401;DHT22;54391;50.000;7.360;2023-03-01T10:00:28;8.30;1.00
39401;DHT22;54391;50.000;7.360;2023-03-01T10:02:57;8.80;1.00
39401;DHT22;54391;50.000;7.360;2023-03-01T10:05:31;8.20;1.00
39401;DHT22;54391;50.000;7.360;2023-03-01T10:08:06;8.00;1.00
39401;DHT22;54391;50.000;7.360;2023-03-01T10:10:38;8.00;1.00
39401;DHT22;54391;50.000;7.360;2023-03-01T10:13:08;8.00;1.00
39401;DHT22;54391;50.000;7.360;2023-03-01T10:15:39;8.50;1.00
39401;DHT22;54391;50.000;7.360;2023-03-01T10:18:09;7.90;1.00
39401;DHT22;54391;50.000;7.360;2023-03-01T10:20:43;7.50;1.00
39401;DHT22;54391;50.000;7.360;2023-03-01T10:23:12;7.70;1.00
39401;DHT22;54391;50.000;7.360;2023-03-01T10:25:43;7.60;1.00
39401;DHT22;54391;50.000;7.360;2023-03-01T10:28:14;8.70;1.00
39401;DHT22;54391;50.000;7.360;2023-03-01T10:30:43;9.20;1.00
39401;DHT22;54391;50.000;7.360;2023-03-01T10:33:13;8.30;1.00
39401;DHT22;54391;50.000;7.360;2023-03-01T10:35:42;8.70;1.00
39401;DHT22;54391;50.000;7.360;2023-03-01T10:38:10;8.60;1.00
39401;DHT22;54391;50.000;7.360;2023-03-01T10:40:49;7.80;1.00
39401;DHT22;54391;50.000;7.360;2023-03-01T10:43:16;8.00;1.00
39401;DHT22;54391;50.000;7.360;2023-03-01T10:45:44;8.70;1.00
39401;DHT22;54391;50.000;7.360;2023-03-01T10:48:12;8.20;1.00
39401;DHT22;54391;50.000;7.360;2023-03-01T10:50:40;8.10;1.00
39401;DHT22;54391;50.000;7.360;2023-03-01T10:53:09;8.50;1.00
39401;DHT22;54391;50.000;7.360;2023-03-01T10:55:44;9.10;1.00
39401;DHT22;54391;50.000;7.360;2023-03-01T10:58:17;8.90;1.00
39401;DHT22;54391;50.000;7.360;2023-03-01T11:00:46;9.90;1.00
39401;DHT22;54391;50.000;7.360;2023-03-01T11:03:14;8.80;1.00
39401;DHT22;54391;50.000;7.360;2023-03-01T11:05:50;10.10;1.00
39401;DHT22;54391;50.000;7.360;2023-03-01T11:08:28;8.20;1.00
39401;DHT22;54391;50.000;7.360;2023-03-01T11:11:05;8.60;1.00
39401;DHT22;54391;50.000;7.360;2023-03-01T11:13:32;9.10;1.00
39401;DHT22;54391;50.000;7.360;2023-03-01T11:16:00;9.50;1.00
39401;DHT22;54391;50.000;7.360;2023-03-01T11:18:29;9.10;1.00
39401;DHT22;54391;50.000;7.360;2023-03-01T11:20:56;9.10;1.00
39401;DHT22;54391;50.000;7.360;2023-03-01T11:23:25;9.20;1.00
39401;DHT22;54391;50.000;7.360;2023-03-01T11:25:54;9.10;1.00
39401;DHT22;54391;50.000;7.360;2023-03-01T11:28:23;9.30;1.00
39401;DHT22;54391;50.000;7.360;2023-03-01T11:30:53;8.80;1.00
39401;DHT22;54391;50.000;7.360;2023-03-01T11:33:24;8.40;1.00
39401;DHT22;54391;50.000;7.360;2023-03-01T11:35:55;9.40;1.00
39401;DHT22;54391;50.000;7.360;2023-03-01T11:38:25;9.60;1.00
39401;DHT22;54391;50.000;7.360;2023-03-01T11:40:53;9.40;1.00
39401;DHT22;54391;50.000;7.360;2023-03-01T11:43:28;8.90;1.00
39401;DHT22;54391;50.000;7.360;2023-03-01T11:46:18;9.20;1.00
39401;DHT22;54391;50.000;7.360;2023-03-01T11:48:52;9.30;1.00
39401;DHT22;54391;50.000;7.360;2023-03-01T11:51:25;9.20;1.00
39401;DHT22;54391;50.000;7.360;2023-03-01T11:54:01;8.90;1.00
39401;DHT22;54391;50.000;7.360;2023-03-01T11:56:32;8.60;1.00
39401;DHT22;54391;50.000;7.360;2023-03-01T11:59:16;8.00;1.00
39401;DHT22;54391;50.000;7.360;2023-03-01T12:01:49;7.80;1.00
39401;DHT22;54391;50.000;7.360;2023-03-01T12:07:15;8.10;1.00
39401;DHT22;54391;50.000;7.360;2023-03-01T12:09:48;7.70;1.00
39401;DHT22;54391;50.000;7.360;2023-03-01T12:15:24;7.70;1.00
39401;DHT22;54391;50.000;7.360;2023-03-01T12:18:03;7.30;1.00
39401;DHT22;54391;50.000;7.360;2023-03-01T12:20:34;7.80;1.00
39401;DHT22;54391;50.000;7.360;2023-03-01T12:25:52;7.10;1.00
39401;DHT22;54391;50.000;7.360;2023-03-01T12:31:24;7.10;1.00
39401;DHT22;54391;50.000;7.360;2023-03-01T12:33:58;7.10;1.00
39401;DHT22;54391;50.000;7.360;2023-03-01T12:36:31;7.30;1.00
39401;DHT22;54391;50.000;7.360;2023-03-01T12:39:01;7.10;1.00
39401;DHT22;54391;50.000;7.360;2023-03-01T12:44:23;7.40;1.00
39401;DHT22;54391;50.000;7.360;2023-03-01T12:46:55;6.50;1.00
39401;DHT22;54391;50.000;7.360;2023-03-01T12:49:25;7.00;1.00
39401;DHT22;54391;50.000;7.360;2023-03-01T12:51:56;6.90;1.00
39401;DHT22;54391;50.000;7.360;2023-03-01T12:54:26;7.00;1.00
39401;DHT22;54391;50.000;7.360;2023-03-01T12:56:54;7.20;1.00
39401;DHT22;54391;50.000;7.360;2023-03-01T12:59:23;6.90;1.00
39401;DHT22;54391;50.000;7.360;2023-03-01T13:01:56;7.40;1.00
39401;DHT22;54391;50.000;7.360;2023-03-01T13:04:27;7.10;1.00
39401;DHT22;54391;50.000;7.360;2023-03-01T13:06:58;7.40;1.00
39401;DHT22;54391;50.000;7.360;2023-03-01T13:09:30;7.40;1.00
39401;DHT22;54391;50.000;7.360;2023-03-01T13:11:58;9.60;1.00
39401;DHT22;54391;50.000;7.360;2023-03-01T13:14:35;7.40;1.00
39401;DHT22;54391;50.000;7.360;2023-03-01T13:17:03;7.20;1.00
39401;DHT22;54391;50.000;7.360;2023-03-01T13:19:31;7.20;1.00
39401;DHT22;54391;50.000;7.360;2023-03-01T13:22:00;7.30;1.00
39401;DHT22;54391;50.000;7.360;2023-03-01T13:24:47;7.30;1.00
39401;DHT22;54391;50.000;7.360;2023-03-01T13:27:21;7.40;1.00
39401;DHT22;54391;50.000;7.360;2023-03-01T13:29:50;7.40;1.00
39401;DHT22;54391;50.000;7.360;2023-03-01T13:32:20;6.80;1.00
39401;DHT22;54391;50.000;7.360;2023-03-01T13:34:51;6.60;1.00
39401;DHT22;54391;50.000;7.360;2023-03-01T13:37:23;6.80;1.00
39401;DHT22;54391;50.000;7.360;2023-03-01T13:39:51;6.70;1.00
39401;DHT22;54391;50.000;7.360;2023-03-01T13:42:30;6.90;1.00
39401;DHT22;54391;50.000;7.360;2023-03-01T13:44:57;7.00;1.00
39401;DHT22;54391;50.000;7.360;2023-03-01T13:47:26;6.70;1.00
39401;DHT22;54391;50.000;7.360;2023-03-01T13:49:55;6.80;1.00
39401;DHT22;54391;50.000;7.360;2023-03-01T13:52:29;6.60;1.00
39401;DHT22;54391;50.000;7.360;2023-03-01T13:54:58;6.20;1.00
39401;DHT22;54391;50.000;7.360;2023-03-01T13:57:29;6.30;1.00
39401;DHT22;54391;50.000;7.360;2023-03-01T13:59:59;6.50;1.00
39401;DHT22;54391;50.000;7.360;2023-03-01T14:02:28;6.30;1.00
39401;DHT22;54391;50.000;7.360;2023-03-01T14:04:55;6.40;1.00
39401;DHT22;54391;50.000;7.360;2023-03-01T14:07:23;6.20;1.00
39401;DHT22;54391;50.000;7.360;2023-03-01T14:09:51;8.50;1.00
39401;DHT22;54391;50.000;7.360;2023-03-01T14:12:21;6.20;1.00
39401;DHT22;54391;50.000;7.360;2023-03-01T14:14:54;6.30;1.00
39401;DHT22;54391;50.000;7.360;2023-03-01T14:17:46;6.10;1.00
39401;DHT22;54391;50.000;7.360;2023-03-01T14:20:17;6.20;1.00
39401;DHT22;54391;50.000;7.360;2023-03-01T14:22:45;5.70;1.00
39401;DHT22;54391;50.000;7.360;2023-03-01T14:25:26;5.80;1.00
39401;DHT22;54391;50.000;7.360;2023-03-01T14:27:57;6.20;1.00
39401;DHT22;54391;50.000;7.360;2023-03-01T14:30:26;6.50;1.00
39401;DHT22;54391;50.000;7.360;2023-03-01T14:32:55;6.50;1.00
39401;DHT22;54391;50.000;7.360;2023-03-01T14:35:24;6.30;1.00
39401;DHT22;54391;50.000;7.360;2023-03-01T14:37:52;6.50;1.00
39401;DHT22;54391;50.000;7.360;2023-03-01T14:40:20;6.60;1.00
39401;DHT22;54391;50.000;7.360;2023-03-01T14:42:47;6.80;1.00
39401;DHT22;54391;50.000;7.360;2023-03-01T14:45:14;6.60;1.00
39401;DHT22;54391;50.000;7.360;2023-03-01T14:47:43;6.80;1.00
39401;DHT22;54391;50.000;7.360;2023-03-01T14:50:15;6.60;1.00
39401;DHT22;54391;50.000;7.360;2023-03-01T14:52:46;6.40;1.00
39401;DHT22;54391;50.000;7.360;2023-03-01T14:55:15;6.40;1.00
39401;DHT22;54391;50.000;7.360;2023-03-01T14:57:44;6.20;1.00
39401;DHT22;54391;50.000;7.360;2023-03-01T15:00:14;6.10;1.00
39401;DHT22;54391;50.000;7.360;2023-03-01T15:02:42;6.30;1.00
39401;DHT22;54391;50.000;7.360;2023-03-01T15:05:09;6.40;1.00
39401;DHT22;54391;50.000;7.360;2023-03-01T15:07:38;6.10;1.00
39401;DHT22;54391;50.000;7.360;2023-03-01T15:10:07;6.20;1.00
39401;DHT22;54391;50.000;7.360;2023-03-01T15:12:41;6.00;1.00
39401;DHT22;54391;50.000;7.360;2023-03-01T15:17:55;5.90;1.00
39401;DHT22;54391;50.000;7.360;2023-03-01T15:20:22;5.90;1.00
39401;DHT22;54391;50.000;7.360;2023-03-01T15:22:52;5.80;1.00
39401;DHT22;54391;50.000;7.360;2023-03-01T15:25:21;5.90;1.00
39401;DHT22;54391;50.000;7.360;2023-03-01T15:27:49;5.80;1.00
39401;DHT22;54391;50.000;7.360;2023-03-01T15:30:17;5.80;1.00
39401;DHT22;54391;50.000;7.360;2023-03-01T15:32:45;5.90;1.00
39401;DHT22;54391;50.000;7.360;2023-03-01T15:37:55;5.80;1.00
39401;DHT22;54391;50.000;7.360;2023-03-01T15:40:28;5.80;1.00
39401;DHT22;54391;50.000;7.360;2023-03-01T15:42:57;5.80;1.00
39401;DHT22;54391;50.000;7.360;2023-03-01T15:45:26;5.90;1.00
39401;DHT22;54391;50.000;7.360;2023-03-01T15:47:54;5.90;1.00
39401;DHT22;54391;50.000;7.360;2023-03-01T15:50:25;6.00;1.00
39401;DHT22;54391;50.000;7.360;2023-03-01T15:52:52;5.80;1.00
39401;DHT22;54391;50.000;7.360;2023-03-01T15:55:21;5.70;1.00
39401;DHT22;54391;50.000;7.360;2023-03-01T15:57:49;5.70;1.00
39401;DHT22;54391;50.000;7.360;2023-03-01T16:00:16;5.50;1.00
39401;DHT22;54391;50.000;7.360;2023-03-01T16:02:44;5.20;1.00
39401;DHT22;54391;50.000;7.360;2023-03-01T16:05:15;5.10;1.00
39401;DHT22;54391;50.000;7.360;2023-03-01T16:07:43;5.40;1.00
39401;DHT22;54391;50.000;7.360;2023-03-01T16:10:11;5.40;1.00
39401;DHT22;54391;50.000;7.360;2023-03-01T16:12:39;5.10;1.00
39401;DHT22;54391;50.000;7.360;2023-03-01T16:15:09;5.00;1.00
39401;DHT22;54391;50.000;7.360;2023-03-01T16:17:39;5.10;1.00